Time;durP1;ratioP1;P1;durP2;ratioP2;P2;SDS_P1;SDS_P2;PMS_P1;PMS_P2;Temp;Humidity;BMP_temperature;BMP_pressure;BME280_temperature;BME280_humidity;BME280_pressure;Samples;Min_cycle;Max_cycle;Signal;HPM_P1;HPM_P2
2023/04/30 00:00:18;;;;;;;;;;;11.00;99.90;;;;;;5089395;28;19920;-70
2023/04/30 00:02:45;;;;;;;;;;;10.90;99.90;;;;;;5107631;28;19920;-70
2023/04/30 00:05:12;;;;;;;;;;;10.90;99.90;;;;;;5107459;28;19951;-70
2023/04/30 00:07:41;;;;;;;;;;;10.90;99.90;;;;;;5106710;28;19995;-72
2023/04/30 00:10:08;;;;;;;;;;;10.80;99.90;;;;;;5107542;28;19920;-71
2023/04/30 00:12:35;;;;;;;;;;;10.80;99.90;;;;;;5107402;28;19926;-71
2023/04/30 00:15:03;;;;;;;;;;;10.80;99.90;;;;;;5106891;28;19982;-68
2023/04/30 00:17:30;;;;;;;;;;;10.70;99.90;;;;;;5092707;28;19920;-68
2023/04/30 00:19:56;;;;;;;;;;;10.80;99.90;;;;;;5087179;28;19927;-70
2023/04/30 00:22:23;;;;;;;;;;;10.80;99.90;;;;;;5086625;28;19987;-69
2023/04/30 00:24:49;;;;;;;;;;;10.70;99.90;;;;;;5086848;28;19982;-67
2023/04/30 00:27:16;;;;;;;;;;;10.60;99.90;;;;;;5086324;28;20007;-67
2023/04/30 00:29:42;;;;;;;;;;;10.60;99.90;;;;;;5086631;28;19992;-70
2023/04/30 00:32:10;;;;;;;;;;;10.60;99.90;;;;;;5086800;28;20012;-68
2023/04/30 00:34:37;;;;;;;;;;;10.60;99.90;;;;;;5086588;28;19927;-68
2023/04/30 00:37:04;;;;;;;;;;;10.60;99.90;;;;;;5086248;28;19961;-68
2023/04/30 00:39:30;;;;;;;;;;;10.60;99.90;;;;;;5086781;28;19987;-69
2023/04/30 00:41:57;;;;;;;;;;;10.60;99.90;;;;;;5086348;28;19995;-71
2023/04/30 00:44:23;;;;;;;;;;;10.70;99.90;;;;;;5084542;28;19987;-69
2023/04/30 00:46:50;;;;;;;;;;;10.60;99.90;;;;;;5085939;28;19987;-68
2023/04/30 00:49:18;;;;;;;;;;;10.60;99.90;;;;;;5086348;28;20285;-69
2023/04/30 00:51:45;;;;;;;;;;;10.60;99.90;;;;;;5086576;28;19920;-69
2023/04/30 00:54:12;;;;;;;;;;;10.60;99.90;;;;;;5092345;28;19927;-72
2023/04/30 00:56:38;;;;;;;;;;;10.60;99.90;;;;;;5105842;28;19920;-69
2023/04/30 00:59:06;;;;;;;;;;;10.60;99.90;;;;;;5106681;28;19947;-68
2023/04/30 01:01:32;;;;;;;;;;;10.70;99.90;;;;;;5106399;28;19927;-69
2023/04/30 01:03:59;;;;;;;;;;;10.60;99.90;;;;;;5106666;28;19927;-69
2023/04/30 01:06:27;;;;;;;;;;;10.50;99.90;;;;;;5105351;28;19927;-69
2023/04/30 01:08:56;;;;;;;;;;;10.50;99.90;;;;;;5106232;28;19991;-69
2023/04/30 01:11:26;;;;;;;;;;;10.50;99.90;;;;;;5100876;28;20254;-69
2023/04/30 01:13:55;;;;;;;;;;;10.50;99.90;;;;;;5085833;28;19927;-68
2023/04/30 01:16:23;;;;;;;;;;;10.50;99.90;;;;;;5085043;28;19920;-68
2023/04/30 01:18:52;;;;;;;;;;;10.50;99.90;;;;;;5082794;28;20361;-69
2023/04/30 01:21:19;;;;;;;;;;;10.50;99.90;;;;;;5094593;28;19991;-71
2023/04/30 01:24:00;;;;;;;;;;;10.50;99.90;;;;;;5106222;28;19920;-68
2023/04/30 01:26:35;;;;;;;;;;;10.50;99.90;;;;;;5105213;28;19926;-69
2023/04/30 01:29:04;;;;;;;;;;;10.50;99.90;;;;;;5106104;28;19987;-69
2023/04/30 01:31:30;;;;;;;;;;;10.50;99.90;;;;;;5105553;28;20259;-69
2023/04/30 01:33:57;;;;;;;;;;;10.40;99.90;;;;;;5105962;28;19974;-68
2023/04/30 01:36:33;;;;;;;;;;;10.50;99.90;;;;;;5105236;28;19986;-69
2023/04/30 01:39:07;;;;;;;;;;;10.40;99.90;;;;;;5106002;28;20120;-69
2023/04/30 01:41:37;;;;;;;;;;;10.40;99.90;;;;;;5105586;28;19983;-69
2023/04/30 01:44:12;;;;;;;;;;;10.40;99.90;;;;;;5105849;28;19926;-69
2023/04/30 01:46:40;;;;;;;;;;;10.40;99.90;;;;;;5105055;28;19920;-69
2023/04/30 01:49:11;;;;;;;;;;;10.40;99.90;;;;;;5105575;28;19983;-69
2023/04/30 01:51:40;;;;;;;;;;;10.40;99.90;;;;;;5105232;28;20222;-68
2023/04/30 01:54:10;;;;;;;;;;;10.40;99.90;;;;;;5105341;28;20238;-68
2023/04/30 01:56:41;;;;;;;;;;;10.40;99.90;;;;;;5104551;28;19990;-69
2023/04/30 01:59:09;;;;;;;;;;;10.40;99.90;;;;;;5105524;28;19920;-68
2023/04/30 02:01:36;;;;;;;;;;;10.40;99.90;;;;;;5095029;28;19955;-69
2023/04/30 02:04:03;;;;;;;;;;;10.40;99.90;;;;;;5084856;28;19956;-69
2023/04/30 02:06:30;;;;;;;;;;;10.40;99.90;;;;;;5084515;28;19920;-68
2023/04/30 02:09:01;;;;;;;;;;;10.40;99.90;;;;;;5084777;28;20208;-68
2023/04/30 02:11:28;;;;;;;;;;;10.30;99.90;;;;;;5084186;28;19920;-68
2023/04/30 02:13:54;;;;;;;;;;;10.30;99.90;;;;;;5084862;28;19971;-69
2023/04/30 02:16:22;;;;;;;;;;;10.30;99.90;;;;;;5084341;28;20274;-68
2023/04/30 02:18:49;;;;;;;;;;;10.30;99.90;;;;;;5083933;28;19920;-68
2023/04/30 02:21:16;;;;;;;;;;;10.30;99.90;;;;;;5104851;28;20219;-68
2023/04/30 02:23:43;;;;;;;;;;;10.30;99.90;;;;;;5104910;28;19920;-69
2023/04/30 02:26:10;;;;;;;;;;;10.30;99.90;;;;;;5104460;28;19920;-69
2023/04/30 02:28:36;;;;;;;;;;;10.30;99.90;;;;;;5104760;28;19979;-69
2023/04/30 02:31:03;;;;;;;;;;;10.30;99.90;;;;;;5104893;28;19920;-69
2023/04/30 02:33:31;;;;;;;;;;;10.30;99.90;;;;;;5104745;28;19979;-69
2023/04/30 02:35:59;;;;;;;;;;;10.30;99.90;;;;;;5103865;28;20271;-68
2023/04/30 02:38:25;;;;;;;;;;;10.30;99.90;;;;;;5104411;28;19983;-69
2023/04/30 02:40:52;;;;;;;;;;;10.30;99.90;;;;;;5104665;28;19983;-69
2023/04/30 02:43:18;;;;;;;;;;;10.20;99.90;;;;;;5104628;28;19920;-72
2023/04/30 02:45:45;;;;;;;;;;;10.30;99.90;;;;;;5104013;28;19955;-68
2023/04/30 02:48:12;;;;;;;;;;;10.20;99.90;;;;;;5104035;28;19926;-68
2023/04/30 02:50:40;;;;;;;;;;;10.20;99.90;;;;;;5088947;28;20252;-68
2023/04/30 02:53:06;;;;;;;;;;;10.20;99.90;;;;;;5084124;28;19995;-69
2023/04/30 02:55:33;;;;;;;;;;;10.20;99.90;;;;;;5084038;28;19920;-68
2023/04/30 02:57:59;;;;;;;;;;;10.30;99.90;;;;;;5083206;28;19932;-68
2023/04/30 03:00:26;;;;;;;;;;;10.30;99.90;;;;;;5084186;28;19983;-68
2023/04/30 03:02:53;;;;;;;;;;;10.30;99.90;;;;;;5084076;28;19951;-68
2023/04/30 03:05:19;;;;;;;;;;;10.30;99.90;;;;;;5083897;28;19983;-70
2023/04/30 03:07:47;;;;;;;;;;;10.20;99.90;;;;;;5083467;28;19920;-69
2023/04/30 03:10:15;;;;;;;;;;;10.20;99.90;;;;;;5083963;28;19987;-69
2023/04/30 03:12:41;;;;;;;;;;;10.20;99.90;;;;;;5083933;28;19975;-69
2023/04/30 03:15:08;;;;;;;;;;;10.10;99.90;;;;;;5083985;28;19956;-69
2023/04/30 03:17:35;;;;;;;;;;;10.10;99.90;;;;;;5082395;28;20322;-69
2023/04/30 03:20:02;;;;;;;;;;;10.10;99.90;;;;;;5083809;28;19920;-69
2023/04/30 03:22:29;;;;;;;;;;;10.10;99.90;;;;;;5083379;28;19966;-69
2023/04/30 03:24:57;;;;;;;;;;;10.10;99.90;;;;;;5083200;28;19928;-70
2023/04/30 03:27:23;;;;;;;;;;;10.10;99.90;;;;;;5083113;28;19962;-68
2023/04/30 03:29:50;;;;;;;;;;;10.10;99.90;;;;;;5083657;28;19991;-69
2023/04/30 03:32:17;;;;;;;;;;;10.10;99.90;;;;;;5083580;28;19966;-68
2023/04/30 03:34:43;;;;;;;;;;;10.10;99.90;;;;;;5083560;28;19927;-68
2023/04/30 03:37:10;;;;;;;;;;;10.10;99.90;;;;;;5082866;28;20177;-68
2023/04/30 03:39:37;;;;;;;;;;;10.10;99.90;;;;;;5083259;28;20217;-68
2023/04/30 03:42:05;;;;;;;;;;;10.10;99.90;;;;;;5083285;28;19964;-68
2023/04/30 03:44:31;;;;;;;;;;;10.10;99.90;;;;;;5083245;28;19983;-69
2023/04/30 03:46:58;;;;;;;;;;;10.10;99.90;;;;;;5086020;28;19984;-70
2023/04/30 03:49:24;;;;;;;;;;;10.10;99.90;;;;;;5103608;28;19982;-69
2023/04/30 03:51:51;;;;;;;;;;;10.10;99.90;;;;;;5103656;28;19926;-68
2023/04/30 03:54:18;;;;;;;;;;;10.20;99.90;;;;;;5103655;28;19927;-69
2023/04/30 03:56:44;;;;;;;;;;;10.10;99.90;;;;;;5102922;28;19955;-69
2023/04/30 03:59:12;;;;;;;;;;;10.10;99.90;;;;;;5102298;28;19920;-69
2023/04/30 04:01:39;;;;;;;;;;;10.10;99.90;;;;;;5082976;28;19920;-68
2023/04/30 04:04:05;;;;;;;;;;;10.10;99.90;;;;;;5083131;28;20015;-69
2023/04/30 04:06:32;;;;;;;;;;;10.10;99.90;;;;;;5082241;28;19920;-68
2023/04/30 04:08:59;;;;;;;;;;;10.10;99.90;;;;;;5083323;28;19988;-69
2023/04/30 04:11:25;;;;;;;;;;;10.00;99.90;;;;;;5083179;28;19952;-69
2023/04/30 04:13:52;;;;;;;;;;;10.10;99.90;;;;;;5091820;28;20263;-69
2023/04/30 04:16:21;;;;;;;;;;;10.00;99.90;;;;;;5102919;28;19999;-69
2023/04/30 04:18:47;;;;;;;;;;;10.00;99.90;;;;;;5100936;28;20112;-68
2023/04/30 04:21:14;;;;;;;;;;;10.00;99.90;;;;;;5082884;28;19920;-64
2023/04/30 04:23:40;;;;;;;;;;;10.00;99.90;;;;;;5082676;28;20283;-68
2023/04/30 04:26:07;;;;;;;;;;;10.00;99.90;;;;;;5093781;28;19962;-67
2023/04/30 04:28:34;;;;;;;;;;;9.90;99.90;;;;;;5102824;28;19920;-66
2023/04/30 04:31:01;;;;;;;;;;;9.90;99.90;;;;;;5103144;28;19988;-68
2023/04/30 04:33:29;;;;;;;;;;;9.90;99.90;;;;;;5103089;28;19920;-67
2023/04/30 04:35:56;;;;;;;;;;;9.90;99.90;;;;;;5106021;28;20123;-68
2023/04/30 04:38:23;;;;;;;;;;;9.90;99.90;;;;;;5106563;28;19924;-67
2023/04/30 04:40:53;;;;;;;;;;;9.90;99.90;;;;;;5106976;28;20108;-68
2023/04/30 04:43:19;;;;;;;;;;;9.80;99.90;;;;;;5106764;28;19920;-68
2023/04/30 04:45:47;;;;;;;;;;;9.80;99.90;;;;;;5103489;28;20154;-68
2023/04/30 04:48:14;;;;;;;;;;;9.80;99.90;;;;;;5106421;28;19932;-68
2023/04/30 04:50:42;;;;;;;;;;;9.80;99.90;;;;;;5106457;28;19920;-68
2023/04/30 04:53:09;;;;;;;;;;;9.80;99.90;;;;;;5106561;28;19996;-66
2023/04/30 04:55:35;;;;;;;;;;;9.80;99.90;;;;;;5106533;28;19983;-71
2023/04/30 04:58:02;;;;;;;;;;;9.80;99.90;;;;;;5105645;28;19926;-66
2023/04/30 05:00:29;;;;;;;;;;;9.80;99.90;;;;;;5106382;28;19983;-67
2023/04/30 05:02:55;;;;;;;;;;;9.80;99.90;;;;;;5106235;28;19982;-67
2023/04/30 05:05:22;;;;;;;;;;;9.80;99.90;;;;;;5105984;28;20269;-66
2023/04/30 05:07:51;;;;;;;;;;;9.90;99.90;;;;;;5105412;28;19956;-70
2023/04/30 05:10:17;;;;;;;;;;;9.90;99.90;;;;;;5097188;28;19920;-67
2023/04/30 05:12:44;;;;;;;;;;;9.90;99.90;;;;;;5105290;28;19921;-68
2023/04/30 05:15:11;;;;;;;;;;;9.90;99.90;;;;;;5105465;28;19983;-69
2023/04/30 05:17:37;;;;;;;;;;;9.90;99.90;;;;;;5104316;28;19926;-70
2023/04/30 05:20:06;;;;;;;;;;;9.90;99.90;;;;;;5106218;28;20181;-70
2023/04/30 05:22:32;;;;;;;;;;;9.90;99.90;;;;;;5100259;28;19920;-73
2023/04/30 05:25:00;;;;;;;;;;;9.90;99.90;;;;;;5105363;28;19920;-69
2023/04/30 05:27:27;;;;;;;;;;;10.00;99.90;;;;;;5101936;28;19984;-70
2023/04/30 05:29:53;;;;;;;;;;;9.90;99.90;;;;;;5105734;28;19961;-70
2023/04/30 05:32:22;;;;;;;;;;;9.90;99.90;;;;;;5106090;28;19962;-69
2023/04/30 05:34:48;;;;;;;;;;;9.90;99.90;;;;;;5105624;28;19982;-69
2023/04/30 05:37:16;;;;;;;;;;;10.00;99.90;;;;;;5103487;28;19999;-69
2023/04/30 05:39:43;;;;;;;;;;;10.00;99.90;;;;;;5105581;28;19920;-74
2023/04/30 05:42:11;;;;;;;;;;;10.00;99.90;;;;;;5105826;28;19951;-68
2023/04/30 05:44:37;;;;;;;;;;;10.00;99.90;;;;;;5105750;28;20200;-68
2023/04/30 05:47:04;;;;;;;;;;;10.00;99.90;;;;;;5104296;28;20090;-68
2023/04/30 05:49:30;;;;;;;;;;;10.00;99.90;;;;;;5105792;28;19987;-69
2023/04/30 05:51:57;;;;;;;;;;;10.00;99.90;;;;;;5105239;28;20251;-70
2023/04/30 05:54:24;;;;;;;;;;;10.00;99.90;;;;;;5105652;28;19927;-69
2023/04/30 05:56:50;;;;;;;;;;;10.00;99.90;;;;;;5094337;28;19991;-69
2023/04/30 05:59:18;;;;;;;;;;;10.00;99.90;;;;;;5085354;28;19940;-69
2023/04/30 06:01:45;;;;;;;;;;;10.10;99.90;;;;;;5084942;28;20230;-70
2023/04/30 06:04:12;;;;;;;;;;;10.10;99.90;;;;;;5085178;28;19988;-68
2023/04/30 06:06:38;;;;;;;;;;;10.10;99.90;;;;;;5093133;28;19983;-70
2023/04/30 06:09:05;;;;;;;;;;;10.10;99.90;;;;;;5105293;28;19920;-69
2023/04/30 06:11:32;;;;;;;;;;;10.10;99.90;;;;;;5105383;28;19927;-73
2023/04/30 06:13:58;;;;;;;;;;;10.20;99.90;;;;;;5105185;28;20032;-69
2023/04/30 06:16:26;;;;;;;;;;;10.30;99.90;;;;;;5104322;28;19926;-70
2023/04/30 06:18:53;;;;;;;;;;;10.40;99.90;;;;;;5095322;28;19977;-69
2023/04/30 06:21:20;;;;;;;;;;;10.50;99.90;;;;;;5082309;28;19995;-71
2023/04/30 06:23:46;;;;;;;;;;;10.50;99.90;;;;;;5084513;28;19921;-69
2023/04/30 06:26:14;;;;;;;;;;;10.60;99.90;;;;;;5085646;28;19959;-69
2023/04/30 06:28:40;;;;;;;;;;;10.60;99.90;;;;;;5104690;28;19974;-69
2023/04/30 06:31:07;;;;;;;;;;;10.70;99.90;;;;;;5104623;28;19968;-68
2023/04/30 06:33:35;;;;;;;;;;;10.70;99.90;;;;;;5104520;28;19970;-69
2023/04/30 06:36:02;;;;;;;;;;;10.80;99.90;;;;;;5104293;28;19920;-70
2023/04/30 06:38:28;;;;;;;;;;;10.90;99.90;;;;;;5098636;28;19963;-69
2023/04/30 06:40:55;;;;;;;;;;;10.90;99.90;;;;;;5084118;28;19920;-69
2023/04/30 06:43:22;;;;;;;;;;;11.00;99.90;;;;;;5084285;28;19935;-69
2023/04/30 06:45:48;;;;;;;;;;;11.00;99.90;;;;;;5083625;28;20305;-68
2023/04/30 06:48:15;;;;;;;;;;;11.10;99.90;;;;;;5084204;28;19995;-70
2023/04/30 06:50:43;;;;;;;;;;;11.10;99.90;;;;;;5084349;28;19952;-70
2023/04/30 06:53:10;;;;;;;;;;;11.10;99.90;;;;;;5083865;28;19934;-68
2023/04/30 06:55:37;;;;;;;;;;;11.10;99.90;;;;;;5083941;28;19983;-69
2023/04/30 06:58:04;;;;;;;;;;;11.10;99.90;;;;;;5103463;28;19926;-70
2023/04/30 07:00:31;;;;;;;;;;;11.20;99.90;;;;;;5103984;28;19920;-69
2023/04/30 07:02:59;;;;;;;;;;;11.20;99.90;;;;;;5101368;28;19983;-69
2023/04/30 07:05:26;;;;;;;;;;;11.30;99.90;;;;;;5104003;28;19978;-69
2023/04/30 07:07:54;;;;;;;;;;;11.30;99.90;;;;;;5103547;28;19991;-69
2023/04/30 07:10:21;;;;;;;;;;;11.30;99.90;;;;;;5103808;28;19958;-70
2023/04/30 07:12:47;;;;;;;;;;;11.20;99.90;;;;;;5104168;28;19926;-74
2023/04/30 07:15:14;;;;;;;;;;;11.40;99.90;;;;;;5103956;28;20152;-69
2023/04/30 07:17:41;;;;;;;;;;;11.40;99.90;;;;;;5103299;28;19956;-69
2023/04/30 07:20:08;;;;;;;;;;;11.50;99.90;;;;;;5104145;28;19920;-70
2023/04/30 07:22:35;;;;;;;;;;;11.60;99.90;;;;;;5103796;28;20111;-69
2023/04/30 07:25:03;;;;;;;;;;;11.70;99.90;;;;;;5103805;28;19956;-68
2023/04/30 07:27:30;;;;;;;;;;;11.70;99.90;;;;;;5103494;28;19920;-69
2023/04/30 07:29:57;;;;;;;;;;;11.70;99.90;;;;;;5096655;28;19948;-70
2023/04/30 07:32:26;;;;;;;;;;;11.80;99.90;;;;;;5089462;28;19951;-69
2023/04/30 07:34:52;;;;;;;;;;;11.90;99.90;;;;;;5103640;28;19951;-69
2023/04/30 07:37:20;;;;;;;;;;;12.00;99.90;;;;;;5101019;28;19920;-70
2023/04/30 07:39:47;;;;;;;;;;;12.00;99.90;;;;;;5103335;28;19942;-68
2023/04/30 07:42:15;;;;;;;;;;;12.10;99.90;;;;;;5103437;28;19951;-68
2023/04/30 07:44:41;;;;;;;;;;;12.20;99.90;;;;;;5103550;28;19987;-70
2023/04/30 07:47:08;;;;;;;;;;;12.20;99.90;;;;;;5102867;28;20230;-71
2023/04/30 07:49:35;;;;;;;;;;;12.30;99.90;;;;;;5103831;28;19987;-69
2023/04/30 07:52:02;;;;;;;;;;;12.40;99.90;;;;;;5103595;28;20158;-68
2023/04/30 07:54:29;;;;;;;;;;;12.50;99.90;;;;;;5103737;28;19935;-69
2023/04/30 07:56:55;;;;;;;;;;;12.50;99.90;;;;;;5100528;28;19920;-69
2023/04/30 07:59:23;;;;;;;;;;;12.60;99.90;;;;;;5103680;28;19983;-70
2023/04/30 08:01:50;;;;;;;;;;;12.60;99.90;;;;;;5102914;28;19920;-69
2023/04/30 08:04:17;;;;;;;;;;;12.70;99.90;;;;;;5103966;28;19926;-73
2023/04/30 08:06:43;;;;;;;;;;;12.70;99.90;;;;;;5103001;28;19959;-69
2023/04/30 08:09:10;;;;;;;;;;;12.70;99.90;;;;;;5103594;28;19991;-70
2023/04/30 08:11:37;;;;;;;;;;;12.80;99.90;;;;;;5087684;28;19952;-69
2023/04/30 08:14:04;;;;;;;;;;;13.00;99.90;;;;;;5087392;28;19952;-69
2023/04/30 08:16:32;;;;;;;;;;;13.00;99.90;;;;;;5086296;28;19955;-69
2023/04/30 08:18:59;;;;;;;;;;;13.10;99.90;;;;;;5087158;28;19920;-69
2023/04/30 08:21:26;;;;;;;;;;;13.10;99.90;;;;;;5086498;28;19921;-68
2023/04/30 08:23:53;;;;;;;;;;;13.20;99.90;;;;;;5105323;28;19927;-68
2023/04/30 08:26:20;;;;;;;;;;;13.20;99.90;;;;;;5105854;28;19987;-70
2023/04/30 08:28:46;;;;;;;;;;;13.30;99.90;;;;;;5107073;28;20200;-68
2023/04/30 08:31:13;;;;;;;;;;;13.30;99.90;;;;;;5106688;28;20028;-68
2023/04/30 08:33:41;;;;;;;;;;;13.30;99.90;;;;;;5106898;28;19983;-68
2023/04/30 08:36:08;;;;;;;;;;;13.30;99.90;;;;;;5106230;28;20159;-69
2023/04/30 08:38:34;;;;;;;;;;;13.30;99.90;;;;;;5104031;28;19999;-68
2023/04/30 08:41:05;;;;;;;;;;;13.40;99.90;;;;;;5107045;28;20066;-68
2023/04/30 08:43:34;;;;;;;;;;;13.40;99.90;;;;;;5106857;28;19942;-69
2023/04/30 08:46:01;;;;;;;;;;;13.40;99.90;;;;;;5106146;28;19942;-70
2023/04/30 08:48:28;;;;;;;;;;;13.40;99.90;;;;;;5106382;28;20085;-70
2023/04/30 08:50:56;;;;;;;;;;;13.40;99.90;;;;;;5106394;28;20275;-69
2023/04/30 08:53:23;;;;;;;;;;;13.40;99.90;;;;;;5106292;28;19965;-68
2023/04/30 08:55:50;;;;;;;;;;;13.40;99.90;;;;;;5106139;28;19927;-69
2023/04/30 08:58:16;;;;;;;;;;;13.40;99.90;;;;;;5106215;28;19927;-69
2023/04/30 09:00:43;;;;;;;;;;;13.40;99.90;;;;;;5106702;28;19970;-70
2023/04/30 09:03:09;;;;;;;;;;;13.50;99.90;;;;;;5091213;28;20258;-68
2023/04/30 09:05:36;;;;;;;;;;;13.60;99.90;;;;;;5099118;28;19928;-69
2023/04/30 09:08:06;;;;;;;;;;;13.70;99.90;;;;;;5105630;28;19920;-68
2023/04/30 09:10:33;;;;;;;;;;;13.70;99.90;;;;;;5106258;28;19987;-68
2023/04/30 09:13:00;;;;;;;;;;;13.70;99.90;;;;;;5100214;28;20246;-69
2023/04/30 09:15:27;;;;;;;;;;;13.70;99.90;;;;;;5106306;28;19920;-71
2023/04/30 09:18:05;;;;;;;;;;;13.80;99.90;;;;;;5106095;28;19920;-71
2023/04/30 09:20:32;;;;;;;;;;;13.80;99.90;;;;;;5099838;28;19983;-68
2023/04/30 09:23:06;;;;;;;;;;;13.90;99.90;;;;;;5102721;28;19979;-69
2023/04/30 09:25:38;;;;;;;;;;;13.90;99.90;;;;;;5103506;28;19924;-69
2023/04/30 09:28:08;;;;;;;;;;;13.90;99.90;;;;;;5105381;28;19959;-70
2023/04/30 09:30:35;;;;;;;;;;;14.00;99.90;;;;;;5105702;28;19920;-70
2023/04/30 09:33:02;;;;;;;;;;;14.10;99.90;;;;;;5105675;28;19920;-68
2023/04/30 09:35:29;;;;;;;;;;;14.20;99.90;;;;;;5105689;28;19962;-69
2023/04/30 09:37:56;;;;;;;;;;;14.20;99.90;;;;;;5105008;28;19983;-70
2023/04/30 09:40:34;;;;;;;;;;;14.20;99.90;;;;;;5100424;28;19952;-71
2023/04/30 09:43:01;;;;;;;;;;;14.20;99.90;;;;;;5085293;28;20283;-70
2023/04/30 09:45:38;;;;;;;;;;;14.20;99.90;;;;;;5085346;28;20235;-71
2023/04/30 09:48:05;;;;;;;;;;;14.20;99.90;;;;;;5084947;28;20201;-70
2023/04/30 09:50:37;;;;;;;;;;;14.20;99.90;;;;;;5085567;28;19926;-70
2023/04/30 09:53:05;;;;;;;;;;;14.20;99.90;;;;;;5083020;28;19921;-71
2023/04/30 09:55:34;;;;;;;;;;;14.30;99.90;;;;;;5086612;28;19921;-71
2023/04/30 09:58:02;;;;;;;;;;;14.30;99.90;;;;;;5105356;28;19988;-72
2023/04/30 10:00:29;;;;;;;;;;;14.40;99.90;;;;;;5097857;28;20003;-71
2023/04/30 10:02:57;;;;;;;;;;;14.50;99.90;;;;;;5094952;28;19920;-71
2023/04/30 10:05:24;;;;;;;;;;;14.60;99.90;;;;;;5105202;28;19920;-70
2023/04/30 10:07:50;;;;;;;;;;;14.70;99.90;;;;;;5084387;28;19920;-71
2023/04/30 10:10:17;;;;;;;;;;;14.80;99.90;;;;;;5084985;28;19983;-70
2023/04/30 10:12:48;;;;;;;;;;;14.90;99.90;;;;;;5084767;28;19956;-71
2023/04/30 10:15:17;;;;;;;;;;;15.00;99.90;;;;;;5085169;28;19921;-71
2023/04/30 10:17:45;;;;;;;;;;;14.90;99.90;;;;;;5084797;28;20112;-70
2023/04/30 10:20:12;;;;;;;;;;;14.90;99.90;;;;;;5085011;28;19926;-71
2023/04/30 10:22:40;;;;;;;;;;;15.10;99.90;;;;;;5084548;28;19920;-70
2023/04/30 10:25:10;;;;;;;;;;;15.20;99.90;;;;;;5082156;28;20113;-74
2023/04/30 10:27:36;;;;;;;;;;;15.20;99.90;;;;;;5083809;28;19927;-71
2023/04/30 10:30:05;;;;;;;;;;;15.20;99.90;;;;;;5084551;28;20045;-71
2023/04/30 10:32:37;;;;;;;;;;;15.10;99.90;;;;;;5083861;28;20173;-70
2023/04/30 10:35:08;;;;;;;;;;;15.20;99.90;;;;;;5084474;28;19983;-71
2023/04/30 10:37:38;;;;;;;;;;;15.20;99.90;;;;;;5083693;28;19983;-72
2023/04/30 10:40:08;;;;;;;;;;;15.40;99.90;;;;;;5094206;28;19983;-72
2023/04/30 10:42:34;;;;;;;;;;;15.60;99.90;;;;;;5101705;28;19979;-71
2023/04/30 10:45:02;;;;;;;;;;;15.90;99.90;;;;;;5104330;28;19927;-70
2023/04/30 10:47:30;;;;;;;;;;;16.10;99.90;;;;;;5103958;28;19979;-71
2023/04/30 10:50:02;;;;;;;;;;;16.10;99.90;;;;;;5104293;28;19979;-70
2023/04/30 10:52:29;;;;;;;;;;;16.30;99.90;;;;;;5104293;28;19926;-70
2023/04/30 10:54:56;;;;;;;;;;;16.40;99.90;;;;;;5104326;28;19928;-70
2023/04/30 10:57:23;;;;;;;;;;;16.40;99.90;;;;;;5103878;28;19922;-71
2023/04/30 10:59:54;;;;;;;;;;;16.30;99.90;;;;;;5103853;28;19928;-71
2023/04/30 11:02:21;;;;;;;;;;;16.10;99.90;;;;;;5104076;28;19942;-70
2023/04/30 11:05:18;;;;;;;;;;;16.00;99.90;;;;;;5104296;28;19985;-70
2023/04/30 11:07:49;;;;;;;;;;;16.00;99.90;;;;;;5041847;28;19921;-71
2023/04/30 11:10:16;;;;;;;;;;;16.10;99.90;;;;;;5091561;28;19955;-70
2023/04/30 11:12:48;;;;;;;;;;;16.20;99.90;;;;;;5103331;28;20741;-72
2023/04/30 11:15:16;;;;;;;;;;;16.10;99.90;;;;;;5104030;28;20085;-71
2023/04/30 11:17:43;;;;;;;;;;;16.20;99.90;;;;;;5103588;28;20208;-72
2023/04/30 11:20:12;;;;;;;;;;;16.20;99.90;;;;;;5103811;28;19920;-71
2023/04/30 11:22:38;;;;;;;;;;;16.20;99.90;;;;;;5083852;28;19932;-70
2023/04/30 11:25:08;;;;;;;;;;;16.20;99.90;;;;;;5081192;28;19944;-70
2023/04/30 11:27:35;;;;;;;;;;;16.00;99.90;;;;;;5082898;28;19920;-70
2023/04/30 11:30:03;;;;;;;;;;;15.80;99.90;;;;;;5083555;28;19959;-70
2023/04/30 11:32:34;;;;;;;;;;;15.80;99.90;;;;;;5083639;28;19921;-70
2023/04/30 11:35:01;;;;;;;;;;;15.80;99.90;;;;;;5083163;28;19992;-70
2023/04/30 11:37:30;;;;;;;;;;;15.80;99.90;;;;;;5082369;28;19928;-71
2023/04/30 11:39:57;;;;;;;;;;;15.70;99.90;;;;;;5083801;28;19943;-71
2023/04/30 11:42:25;;;;;;;;;;;15.60;99.90;;;;;;5083812;28;20119;-69
2023/04/30 11:44:52;;;;;;;;;;;15.60;99.90;;;;;;5082393;28;19928;-71
2023/04/30 11:47:18;;;;;;;;;;;15.60;99.90;;;;;;5082824;28;20252;-70
2023/04/30 11:49:45;;;;;;;;;;;15.60;99.90;;;;;;5083504;28;19956;-71
2023/04/30 11:52:13;;;;;;;;;;;15.60;99.90;;;;;;5080474;28;19952;-69
2023/04/30 11:54:39;;;;;;;;;;;15.60;99.90;;;;;;5083202;28;19956;-70
2023/04/30 11:57:06;;;;;;;;;;;15.70;99.90;;;;;;5083697;28;19992;-71
2023/04/30 11:59:39;;;;;;;;;;;15.70;99.90;;;;;;5083936;28;19955;-70
2023/04/30 12:02:06;;;;;;;;;;;15.80;99.90;;;;;;5083927;28;19925;-70
2023/04/30 12:04:33;;;;;;;;;;;15.80;99.90;;;;;;5084169;28;19979;-70
2023/04/30 12:07:01;;;;;;;;;;;15.70;99.90;;;;;;5083240;28;19972;-70
2023/04/30 12:09:29;;;;;;;;;;;15.70;99.90;;;;;;5083296;28;20209;-69
2023/04/30 12:11:55;;;;;;;;;;;15.70;99.90;;;;;;5083937;28;19966;-69
2023/04/30 12:14:24;;;;;;;;;;;15.60;99.90;;;;;;5078174;28;20112;-69
2023/04/30 12:16:52;;;;;;;;;;;15.60;99.90;;;;;;5082538;28;19962;-70
2023/04/30 12:19:20;;;;;;;;;;;15.70;99.90;;;;;;5082945;28;19991;-68
2023/04/30 12:21:47;;;;;;;;;;;15.70;99.90;;;;;;5083052;28;19956;-70
2023/04/30 12:24:14;;;;;;;;;;;15.90;99.90;;;;;;5083290;28;19927;-69
2023/04/30 12:26:41;;;;;;;;;;;16.00;99.90;;;;;;5082564;28;19924;-70
2023/04/30 12:29:08;;;;;;;;;;;16.10;99.90;;;;;;5083150;28;20123;-71
2023/04/30 12:31:36;;;;;;;;;;;16.20;99.90;;;;;;5083207;28;19927;-69
2023/04/30 12:34:05;;;;;;;;;;;16.60;99.90;;;;;;5082929;28;19927;-72
2023/04/30 12:36:32;;;;;;;;;;;17.00;99.90;;;;;;5082426;28;20272;-70
2023/04/30 12:39:16;;;;;;;;;;;17.50;99.90;;;;;;5082673;28;19956;-70
2023/04/30 12:41:44;;;;;;;;;;;17.90;99.90;;;;;;5083091;28;20176;-69
2023/04/30 12:44:15;;;;;;;;;;;18.40;99.90;;;;;;5082626;28;19927;-71
2023/04/30 12:46:42;;;;;;;;;;;18.90;99.90;;;;;;5081803;28;19920;-69
2023/04/30 12:49:10;;;;;;;;;;;19.20;99.90;;;;;;5082896;28;19920;-70
2023/04/30 12:51:39;;;;;;;;;;;19.20;99.90;;;;;;5082710;28;19920;-73
2023/04/30 12:54:05;;;;;;;;;;;18.90;99.90;;;;;;5082969;28;19921;-70
2023/04/30 12:56:32;;;;;;;;;;;18.60;99.90;;;;;;5084183;28;19926;-70
2023/04/30 12:58:59;;;;;;;;;;;18.40;99.90;;;;;;5086543;28;19987;-69
2023/04/30 13:01:25;;;;;;;;;;;18.30;99.90;;;;;;5086085;28;19991;-69
2023/04/30 13:03:52;;;;;;;;;;;18.10;99.90;;;;;;5086348;28;19987;-69
2023/04/30 13:06:20;;;;;;;;;;;17.90;99.90;;;;;;5085940;28;19988;-70
2023/04/30 13:08:47;;;;;;;;;;;17.70;99.90;;;;;;5086356;28;19927;-69
2023/04/30 13:11:14;;;;;;;;;;;17.60;99.90;;;;;;5086253;28;19927;-70
2023/04/30 13:13:41;;;;;;;;;;;17.50;99.90;;;;;;5083599;28;19955;-69
2023/04/30 13:16:07;;;;;;;;;;;17.50;99.90;;;;;;5085459;28;19920;-69
2023/04/30 13:18:34;;;;;;;;;;;17.60;99.90;;;;;;5085909;28;19920;-69
2023/04/30 13:21:00;;;;;;;;;;;17.60;99.90;;;;;;5086073;28;19921;-69
2023/04/30 13:23:28;;;;;;;;;;;17.60;99.90;;;;;;5086008;28;19987;-69
2023/04/30 13:25:55;;;;;;;;;;;17.70;99.90;;;;;;5085403;28;19928;-71
2023/04/30 13:28:22;;;;;;;;;;;18.10;99.90;;;;;;5085485;28;20309;-69
2023/04/30 13:30:48;;;;;;;;;;;18.40;99.90;;;;;;5085880;28;19920;-70
2023/04/30 13:33:15;;;;;;;;;;;18.50;99.90;;;;;;5103151;28;19920;-69
2023/04/30 13:35:42;;;;;;;;;;;18.30;99.90;;;;;;5105524;28;20222;-69
2023/04/30 13:38:08;;;;;;;;;;;18.00;99.90;;;;;;5103959;28;19983;-70
2023/04/30 13:40:36;;;;;;;;;;;17.90;99.90;;;;;;5085309;28;20227;-70
2023/04/30 13:43:03;;;;;;;;;;;17.80;99.90;;;;;;5085168;28;19920;-70
2023/04/30 13:45:30;;;;;;;;;;;17.80;99.90;;;;;;5103575;28;19991;-70
2023/04/30 13:47:57;;;;;;;;;;;17.70;99.90;;;;;;5102583;28;19960;-69
2023/04/30 13:50:24;;;;;;;;;;;17.70;99.90;;;;;;5103157;28;19932;-69
2023/04/30 13:52:50;;;;;;;;;;;17.80;99.90;;;;;;5105425;28;19983;-70
2023/04/30 13:55:17;;;;;;;;;;;17.80;99.90;;;;;;5105441;28;19958;-69
2023/04/30 13:57:45;;;;;;;;;;;17.80;99.90;;;;;;5103299;28;20111;-70
2023/04/30 14:00:12;;;;;;;;;;;17.70;99.90;;;;;;5105445;28;19998;-68
2023/04/30 14:02:39;;;;;;;;;;;17.70;99.90;;;;;;5105321;28;19927;-70
2023/04/30 14:05:06;;;;;;;;;;;17.70;99.90;;;;;;5104775;28;19983;-70
2023/04/30 14:07:32;;;;;;;;;;;17.80;99.90;;;;;;5104120;28;19951;-69
2023/04/30 14:09:59;;;;;;;;;;;18.20;99.90;;;;;;5104859;28;19926;-70
2023/04/30 14:12:26;;;;;;;;;;;18.50;99.90;;;;;;5104853;28;19920;-71
2023/04/30 14:14:54;;;;;;;;;;;18.90;99.90;;;;;;5102261;28;19962;-70
2023/04/30 14:17:21;;;;;;;;;;;19.20;99.90;;;;;;5087028;28;19958;-70
2023/04/30 14:19:47;;;;;;;;;;;19.30;99.90;;;;;;5084966;28;20073;-70